Observations for YEOVILTON NAVY, United Kingdom (EGDY)

EGDY 241450Z AUTO 07013KT 9999 NCD 06/M03 Q1019 
EGDY 241350Z AUTO 06013KT 9999 NCD 06/M03 Q1020 
EGDY 241250Z AUTO 06011KT 9999 NCD 05/M03 Q1020 
EGDY 241150Z AUTO 03011KT 9999 NCD 03/M02 Q1020 
EGDY 241050Z AUTO 05011KT 9999 NCD 03/M04 Q1020 
EGDY 240950Z AUTO 05008KT 9999 NCD 01/M04 Q1020 
EGDY 240850Z AUTO 03009KT 9999 NCD M01/M04 Q1020
EGDY 240750Z AUTO 02005KT 9999 NCD M03/M05 Q1020
EGDY 240650Z AUTO 04008KT 9999 NCD M03/M06 Q1019
EGDY 240550Z AUTO 06008KT 9999 NCD M02/M05 Q1018
EGDY 240450Z AUTO 03005KT 9999 NCD M03/M06 Q1018
EGDY 240350Z AUTO 07009KT 9999 FEW030/// M01/M04 Q1018  
EGDY 240250Z AUTO 06009KT 9999 BKN029/// M01/M04 Q1018  
EGDY 240150Z AUTO 05009KT 9999 OVC029/// M00/M04 Q1018  
EGDY 240050Z AUTO 05008KT 9000 HZ OVC026/// M00/M03 Q1018   
EGDY 232350Z AUTO 08007KT 9999 OVC025/// 00/M03 Q1018   
EGDY 232250Z AUTO 08007KT 9999 BKN024/// 00/M03 Q1018   
EGDY 232150Z AUTO 08007KT 9999 NCD M01/M04 Q1018
EGDY 232050Z AUTO 08010KT 9999 NCD 00/M03 Q1018 
EGDY 231950Z AUTO 07010KT 9999 NCD 01/M03 Q1018 
EGDY 231850Z AUTO 08012KT 9999 NCD 02/M03 Q1018 
EGDY 231750Z AUTO 08011KT 9999 NCD 02/M03 Q1017 
EGDY 231650Z AUTO 07012KT 9999 NCD 05/M03 Q1017 
EGDY 231550Z 09010KT CAVOK 05/M04 Q1018 BLU NOSIG